Time;durP1;ratioP1;P1;durP2;ratioP2;P2;SDS_P1;SDS_P2;PMS_P1;PMS_P2;Temp;Humidity;BMP_temperature;BMP_pressure;BME280_temperature;BME280_humidity;BME280_pressure;Samples;Min_cycle;Max_cycle;Signal;HPM_P1;HPM_P2
2023/05/28 17:48:47;;;;;;;57.92;7.30;;;;;;;;;;5075721;27;21771;-58
2023/05/28 17:51:13;;;;;;;53.95;8.00;;;;;;;;;;5084840;27;20040;-57
2023/05/28 17:53:38;;;;;;;85.27;10.77;;;;;;;;;;5079599;28;20043;-56
2023/05/28 17:56:03;;;;;;;53.67;7.33;;;;;;;;;;5072162;28;20938;-58
2023/05/28 17:58:28;;;;;;;45.45;6.50;;;;;;;;;;5058548;28;20055;-54
2023/05/28 18:00:54;;;;;;;39.50;5.90;;;;;;;;;;5059708;28;20144;-58
2023/05/28 18:03:21;;;;;;;41.20;6.27;;;;;;;;;;5059737;28;20274;-57
2023/05/28 18:05:47;;;;;;;69.50;8.93;;;;;;;;;;5058209;28;20293;-59
2023/05/28 18:08:12;;;;;;;64.83;7.40;;;;;;;;;;5058954;28;20029;-56
2023/05/28 18:10:39;;;;;;;98.05;10.15;;;;;;;;;;5058182;28;20813;-56
2023/05/28 18:13:04;;;;;;;72.25;7.72;;;;;;;;;;5061448;28;20035;-57
2023/05/28 18:15:30;;;;;;;74.60;7.95;;;;;;;;;;5059734;28;20563;-56
2023/05/28 18:17:55;;;;;;;63.53;7.43;;;;;;;;;;5059310;28;20009;-58
2023/05/28 18:20:21;;;;;;;60.13;7.03;;;;;;;;;;5059978;28;20103;-56
2023/05/28 18:22:46;;;;;;;104.38;10.00;;;;;;;;;;5057795;28;20049;-57
2023/05/28 18:25:12;;;;;;;69.07;7.85;;;;;;;;;;5059107;28;20135;-55
2023/05/28 18:27:38;;;;;;;110.72;10.30;;;;;;;;;;5056720;28;20032;-54
2023/05/28 18:30:03;;;;;;;68.28;7.20;;;;;;;;;;5060227;28;20660;-55
2023/05/28 18:32:29;;;;;;;73.95;7.80;;;;;;;;;;5059170;28;20040;-54
2023/05/28 18:34:54;;;;;;;70.63;7.28;;;;;;;;;;5057334;28;20205;-58
2023/05/28 18:37:20;;;;;;;61.40;7.05;;;;;;;;;;5058647;28;20421;-58
2023/05/28 18:39:46;;;;;;;126.85;11.75;;;;;;;;;;5058708;28;20036;-56
2023/05/28 18:42:11;;;;;;;64.18;7.07;;;;;;;;;;5058855;28;20054;-56
2023/05/28 18:44:41;;;;;;;104.68;10.85;;;;;;;;;;5059317;28;20027;-58
2023/05/28 18:47:07;;;;;;;68.88;7.30;;;;;;;;;;5057623;28;20226;-57
2023/05/28 18:49:33;;;;;;;63.38;6.95;;;;;;;;;;5057671;28;20116;-56
2023/05/28 18:51:59;;;;;;;64.15;7.10;;;;;;;;;;5057311;28;20041;-55
2023/05/28 18:54:24;;;;;;;64.60;7.07;;;;;;;;;;5058382;28;20031;-58
2023/05/28 18:56:49;;;;;;;110.18;10.73;;;;;;;;;;5056409;28;20029;-61
2023/05/28 18:59:15;;;;;;;70.57;7.47;;;;;;;;;;5051320;28;20070;-58
2023/05/28 19:01:41;;;;;;;118.78;11.15;;;;;;;;;;5041481;28;20043;-61
2023/05/28 19:04:07;;;;;;;69.88;7.40;;;;;;;;;;5045510;28;20040;-59
2023/05/28 19:06:32;;;;;;;65.50;7.03;;;;;;;;;;5045017;28;20457;-59
2023/05/28 19:08:57;;;;;;;65.17;7.37;;;;;;;;;;5043603;28;20024;-59
2023/05/28 19:11:22;;;;;;;60.73;7.10;;;;;;;;;;5043300;28;20621;-60
2023/05/28 19:13:48;;;;;;;117.45;11.30;;;;;;;;;;5044375;28;20024;-58
2023/05/28 19:16:13;;;;;;;70.50;7.18;;;;;;;;;;5042075;28;20040;-58
2023/05/28 19:18:38;;;;;;;120.13;11.40;;;;;;;;;;5043484;28;20032;-58
2023/05/28 19:21:04;;;;;;;76.88;7.95;;;;;;;;;;5045380;28;20036;-58
2023/05/28 19:23:29;;;;;;;57.60;6.45;;;;;;;;;;5052425;28;20024;-60
2023/05/28 19:25:54;;;;;;;72.20;7.38;;;;;;;;;;5044577;28;20037;-56
2023/05/28 19:28:20;;;;;;;70.70;7.40;;;;;;;;;;5045878;28;20032;-56
2023/05/28 19:30:46;;;;;;;120.38;11.65;;;;;;;;;;5043601;28;20470;-56
2023/05/28 19:33:11;;;;;;;74.97;7.72;;;;;;;;;;5044291;28;20025;-57
2023/05/28 19:35:36;;;;;;;67.83;7.43;;;;;;;;;;5042986;28;20036;-57
2023/05/28 19:38:02;;;;;;;78.13;7.87;;;;;;;;;;5045788;28;20664;-55
2023/05/28 19:40:27;;;;;;;67.97;7.20;;;;;;;;;;5043189;28;20044;-56
2023/05/28 19:42:52;;;;;;;101.45;9.95;;;;;;;;;;5044838;28;20028;-56
2023/05/28 19:45:18;;;;;;;69.40;7.38;;;;;;;;;;5043630;28;20355;-55
2023/05/28 19:47:44;;;;;;;109.88;10.40;;;;;;;;;;5043194;28;20047;-59
2023/05/28 19:50:09;;;;;;;70.28;7.30;;;;;;;;;;5041591;28;20056;-57
2023/05/28 19:52:35;;;;;;;75.00;7.70;;;;;;;;;;5045411;28;20021;-59
2023/05/28 19:55:00;;;;;;;61.35;7.03;;;;;;;;;;5042812;28;20096;-54
2023/05/28 19:57:26;;;;;;;73.70;7.60;;;;;;;;;;5042261;28;20037;-55
2023/05/28 19:59:52;;;;;;;114.47;10.70;;;;;;;;;;5043394;28;20866;-56
2023/05/28 20:02:19;;;;;;;67.03;7.65;;;;;;;;;;5043036;28;20036;-55
2023/05/28 20:04:47;;;;;;;118.38;11.07;;;;;;;;;;5042242;28;20028;-56
2023/05/28 20:07:13;;;;;;;52.65;6.82;;;;;;;;;;5042804;28;20032;-56
2023/05/28 20:09:38;;;;;;;69.35;7.28;;;;;;;;;;5043186;28;20053;-58
2023/05/28 20:12:03;;;;;;;59.70;7.00;;;;;;;;;;5042957;28;20406;-55
2023/05/28 20:14:29;;;;;;;49.03;6.20;;;;;;;;;;5044337;28;20183;-58
2023/05/28 20:16:55;;;;;;;117.10;10.48;;;;;;;;;;5040277;28;20098;-56
2023/05/28 20:19:24;;;;;;;54.53;6.70;;;;;;;;;;5044174;28;20040;-55
2023/05/28 20:21:49;;;;;;;85.88;9.35;;;;;;;;;;5040691;28;20875;-54
2023/05/28 20:24:14;;;;;;;56.22;6.72;;;;;;;;;;5043692;28;20035;-58
2023/05/28 20:26:40;;;;;;;53.47;6.63;;;;;;;;;;5041494;28;20071;-55
2023/05/28 20:29:05;;;;;;;60.03;7.20;;;;;;;;;;5043439;28;20775;-57
2023/05/28 20:31:30;;;;;;;47.30;6.40;;;;;;;;;;5045037;28;20691;-58
2023/05/28 20:33:56;;;;;;;89.53;9.32;;;;;;;;;;5042180;28;20665;-59
2023/05/28 20:36:22;;;;;;;56.80;6.55;;;;;;;;;;5045568;28;20032;-55
2023/05/28 20:38:49;;;;;;;92.90;9.48;;;;;;;;;;5040850;28;20028;-57
2023/05/28 20:41:14;;;;;;;51.85;6.30;;;;;;;;;;5042584;28;20422;-58
2023/05/28 20:43:39;;;;;;;58.60;6.68;;;;;;;;;;5041988;28;20033;-57
2023/05/28 20:46:05;;;;;;;55.78;6.82;;;;;;;;;;5041066;28;20039;-56
2023/05/28 20:48:30;;;;;;;48.67;6.13;;;;;;;;;;5046863;28;20502;-56
2023/05/28 20:50:55;;;;;;;102.53;9.63;;;;;;;;;;5041254;28;20259;-56
2023/05/28 20:53:21;;;;;;;47.00;6.13;;;;;;;;;;5042602;28;20024;-56
2023/05/28 20:55:46;;;;;;;98.90;9.73;;;;;;;;;;5041486;28;20033;-54
2023/05/28 20:58:11;;;;;;;51.27;5.83;;;;;;;;;;5043550;28;20299;-53
2023/05/28 21:00:37;;;;;;;49.40;6.47;;;;;;;;;;5041739;28;20418;-54
2023/05/28 21:03:02;;;;;;;58.97;6.50;;;;;;;;;;5041244;28;20013;-54
2023/05/28 21:05:27;;;;;;;64.20;7.07;;;;;;;;;;5040258;28;20037;-54
2023/05/28 21:07:53;;;;;;;102.77;10.37;;;;;;;;;;5042193;28;20036;-56
2023/05/28 21:10:18;;;;;;;56.17;6.65;;;;;;;;;;5040887;28;20675;-55
2023/05/28 21:12:43;;;;;;;78.88;8.48;;;;;;;;;;5041453;28;20017;-58
2023/05/28 21:15:09;;;;;;;52.63;6.40;;;;;;;;;;5043722;28;20139;-58
2023/05/28 21:17:34;;;;;;;66.22;7.15;;;;;;;;;;5043408;28;20028;-56
2023/05/28 21:20:01;;;;;;;92.50;8.90;;;;;;;;;;5040890;28;20754;-55
2023/05/28 21:22:26;;;;;;;49.05;5.72;;;;;;;;;;5044851;28;20021;-57
2023/05/28 21:24:51;;;;;;;93.03;9.23;;;;;;;;;;5049091;28;20020;-56
2023/05/28 21:27:17;;;;;;;52.43;6.23;;;;;;;;;;5040223;28;20275;-57
2023/05/28 21:29:42;;;;;;;67.35;7.32;;;;;;;;;;5040589;28;20025;-55
2023/05/28 21:32:07;;;;;;;51.15;6.10;;;;;;;;;;5049812;28;20344;-58
2023/05/28 21:34:32;;;;;;;62.40;6.47;;;;;;;;;;5044418;28;20031;-57
2023/05/28 21:36:58;;;;;;;101.15;9.82;;;;;;;;;;5040726;28;20971;-60
2023/05/28 21:39:23;;;;;;;31.73;4.93;;;;;;;;;;5045263;28;20020;-59
2023/05/28 21:41:48;;;;;;;114.70;10.93;;;;;;;;;;5039827;28;20361;-58
2023/05/28 21:44:13;;;;;;;55.83;6.53;;;;;;;;;;5042604;28;21032;-59
2023/05/28 21:46:39;;;;;;;64.50;6.80;;;;;;;;;;5042590;28;20279;-61
2023/05/28 21:49:04;;;;;;;65.20;7.07;;;;;;;;;;5041342;28;20263;-57
2023/05/28 21:51:30;;;;;;;45.65;5.53;;;;;;;;;;5042313;28;20286;-58
2023/05/28 21:53:55;;;;;;;98.72;9.10;;;;;;;;;;5044207;28;20025;-57
